Sete Barras, Brazil
Current Conditions -  °F | °C
As of 8:00 PM on Wednesday 22 Oct 2014 (Local Time) from SBSP Reporting Station
Overcast Overcast  
Wind Chill: 61°   Ceiling: 700
Heat Index: 61°   Visibility: 6mi
Dew Point: 54°   Wind: 15mph
Humidity: 77%   Direction: 140°SE
Pressure: 30.21"   Gusts: NA
Location:  24.38°S, 47.93°W
Report Text: SBSP 222200Z 14013KT 9999 OVC007 16/12 Q1023
Loading
Personal Weather Stations






























Interactive Weather Map
Tropical Storm Tracking
New forecast layout! Learn more

10-Day Weather Forecast

Advertisements
Track Severe Weather on mobile